sensor_id;sensor_type;location;lat;lon;timestamp;P1;durP1;ratioP1;P2;durP2;ratioP2
21505;SDS011;10914;48.886;9.394;2023-07-09T00:02:00;21.70;;;20.30;;
21505;SDS011;10914;48.886;9.394;2023-07-09T00:04:26;21.25;;;19.83;;
21505;SDS011;10914;48.886;9.394;2023-07-09T00:06:53;21.17;;;19.88;;
21505;SDS011;10914;48.886;9.394;2023-07-09T00:09:20;22.38;;;21.13;;
21505;SDS011;10914;48.886;9.394;2023-07-09T00:11:46;21.42;;;20.13;;
21505;SDS011;10914;48.886;9.394;2023-07-09T00:14:12;21.95;;;20.55;;
21505;SDS011;10914;48.886;9.394;2023-07-09T00:16:38;22.80;;;21.20;;
21505;SDS011;10914;48.886;9.394;2023-07-09T00:19:14;22.25;;;20.83;;
21505;SDS011;10914;48.886;9.394;2023-07-09T00:21:41;23.67;;;22.17;;
21505;SDS011;10914;48.886;9.394;2023-07-09T00:24:06;23.37;;;21.87;;
21505;SDS011;10914;48.886;9.394;2023-07-09T00:26:32;23.13;;;21.83;;
21505;SDS011;10914;48.886;9.394;2023-07-09T00:28:57;23.05;;;21.48;;
21505;SDS011;10914;48.886;9.394;2023-07-09T00:31:23;22.73;;;21.33;;
21505;SDS011;10914;48.886;9.394;2023-07-09T00:33:48;26.25;;;24.45;;
21505;SDS011;10914;48.886;9.394;2023-07-09T00:36:25;24.48;;;22.88;;
21505;SDS011;10914;48.886;9.394;2023-07-09T00:38:50;26.95;;;25.38;;
21505;SDS011;10914;48.886;9.394;2023-07-09T00:41:20;22.73;;;21.23;;
21505;SDS011;10914;48.886;9.394;2023-07-09T00:43:47;22.95;;;21.55;;
21505;SDS011;10914;48.886;9.394;2023-07-09T00:49:05;23.00;;;21.65;;
21505;SDS011;10914;48.886;9.394;2023-07-09T00:51:33;24.05;;;22.38;;
21505;SDS011;10914;48.886;9.394;2023-07-09T00:54:14;28.33;;;26.73;;
21505;SDS011;10914;48.886;9.394;2023-07-09T00:56:40;27.55;;;25.83;;
21505;SDS011;10914;48.886;9.394;2023-07-09T00:59:08;25.33;;;23.65;;
21505;SDS011;10914;48.886;9.394;2023-07-09T01:01:36;23.73;;;22.33;;
21505;SDS011;10914;48.886;9.394;2023-07-09T01:04:05;24.35;;;22.63;;
21505;SDS011;10914;48.886;9.394;2023-07-09T01:06:35;29.10;;;27.40;;
21505;SDS011;10914;48.886;9.394;2023-07-09T01:09:02;30.70;;;28.90;;
21505;SDS011;10914;48.886;9.394;2023-07-09T01:11:28;24.23;;;22.58;;
21505;SDS011;10914;48.886;9.394;2023-07-09T01:13:55;27.60;;;25.80;;
21505;SDS011;10914;48.886;9.394;2023-07-09T01:16:21;27.02;;;25.38;;
21505;SDS011;10914;48.886;9.394;2023-07-09T01:18:49;23.73;;;22.33;;
21505;SDS011;10914;48.886;9.394;2023-07-09T01:21:14;24.92;;;23.48;;
21505;SDS011;10914;48.886;9.394;2023-07-09T01:23:43;25.75;;;24.27;;
21505;SDS011;10914;48.886;9.394;2023-07-09T01:26:10;25.45;;;24.05;;
21505;SDS011;10914;48.886;9.394;2023-07-09T01:28:36;26.33;;;24.67;;
21505;SDS011;10914;48.886;9.394;2023-07-09T01:31:01;25.20;;;23.63;;
21505;SDS011;10914;48.886;9.394;2023-07-09T01:33:27;25.70;;;24.10;;
21505;SDS011;10914;48.886;9.394;2023-07-09T01:35:52;25.15;;;23.65;;
21505;SDS011;10914;48.886;9.394;2023-07-09T01:38:18;23.98;;;22.48;;
21505;SDS011;10914;48.886;9.394;2023-07-09T01:40:45;24.80;;;23.30;;
21505;SDS011;10914;48.886;9.394;2023-07-09T01:43:11;24.33;;;22.77;;
21505;SDS011;10914;48.886;9.394;2023-07-09T01:45:36;25.02;;;23.45;;
21505;SDS011;10914;48.886;9.394;2023-07-09T01:48:02;24.35;;;22.77;;
21505;SDS011;10914;48.886;9.394;2023-07-09T01:50:27;24.85;;;23.27;;
21505;SDS011;10914;48.886;9.394;2023-07-09T01:52:53;24.58;;;23.08;;
21505;SDS011;10914;48.886;9.394;2023-07-09T01:55:18;25.15;;;23.55;;
21505;SDS011;10914;48.886;9.394;2023-07-09T01:57:44;24.55;;;23.08;;
21505;SDS011;10914;48.886;9.394;2023-07-09T02:00:11;24.05;;;22.58;;
21505;SDS011;10914;48.886;9.394;2023-07-09T02:02:38;24.13;;;22.73;;
21505;SDS011;10914;48.886;9.394;2023-07-09T02:05:04;25.98;;;24.58;;
21505;SDS011;10914;48.886;9.394;2023-07-09T02:07:30;28.92;;;27.23;;
21505;SDS011;10914;48.886;9.394;2023-07-09T02:09:55;31.70;;;29.65;;
21505;SDS011;10914;48.886;9.394;2023-07-09T02:12:20;30.67;;;28.90;;
21505;SDS011;10914;48.886;9.394;2023-07-09T02:14:46;32.05;;;30.17;;
21505;SDS011;10914;48.886;9.394;2023-07-09T02:17:11;29.25;;;27.45;;
21505;SDS011;10914;48.886;9.394;2023-07-09T02:19:37;30.55;;;28.85;;
21505;SDS011;10914;48.886;9.394;2023-07-09T02:22:02;33.80;;;31.77;;
21505;SDS011;10914;48.886;9.394;2023-07-09T02:24:27;34.58;;;32.67;;
21505;SDS011;10914;48.886;9.394;2023-07-09T02:26:56;30.23;;;28.63;;
21505;SDS011;10914;48.886;9.394;2023-07-09T02:29:22;34.28;;;32.33;;
21505;SDS011;10914;48.886;9.394;2023-07-09T02:31:48;34.88;;;33.15;;
21505;SDS011;10914;48.886;9.394;2023-07-09T02:34:14;35.90;;;33.97;;
21505;SDS011;10914;48.886;9.394;2023-07-09T02:36:39;35.37;;;33.23;;
21505;SDS011;10914;48.886;9.394;2023-07-09T02:39:07;35.58;;;33.45;;
21505;SDS011;10914;48.886;9.394;2023-07-09T02:41:33;35.77;;;33.87;;
21505;SDS011;10914;48.886;9.394;2023-07-09T02:43:58;35.97;;;34.03;;
21505;SDS011;10914;48.886;9.394;2023-07-09T02:46:23;39.45;;;37.22;;
21505;SDS011;10914;48.886;9.394;2023-07-09T02:48:49;40.90;;;38.83;;
21505;SDS011;10914;48.886;9.394;2023-07-09T02:51:14;35.10;;;33.15;;
21505;SDS011;10914;48.886;9.394;2023-07-09T02:53:39;35.67;;;33.65;;
21505;SDS011;10914;48.886;9.394;2023-07-09T02:56:04;36.00;;;33.87;;
21505;SDS011;10914;48.886;9.394;2023-07-09T02:58:29;37.42;;;35.15;;
21505;SDS011;10914;48.886;9.394;2023-07-09T03:00:54;34.20;;;32.33;;
21505;SDS011;10914;48.886;9.394;2023-07-09T03:03:20;37.50;;;35.30;;
21505;SDS011;10914;48.886;9.394;2023-07-09T03:05:46;35.65;;;33.60;;
21505;SDS011;10914;48.886;9.394;2023-07-09T03:08:11;35.55;;;33.63;;
21505;SDS011;10914;48.886;9.394;2023-07-09T03:10:36;35.85;;;33.85;;
21505;SDS011;10914;48.886;9.394;2023-07-09T03:13:01;31.57;;;29.87;;
21505;SDS011;10914;48.886;9.394;2023-07-09T03:15:27;32.88;;;30.88;;
21505;SDS011;10914;48.886;9.394;2023-07-09T03:17:52;34.27;;;32.40;;
21505;SDS011;10914;48.886;9.394;2023-07-09T03:20:17;33.33;;;31.53;;
21505;SDS011;10914;48.886;9.394;2023-07-09T03:22:42;32.72;;;30.77;;
21505;SDS011;10914;48.886;9.394;2023-07-09T03:25:07;32.33;;;30.63;;
21505;SDS011;10914;48.886;9.394;2023-07-09T03:27:32;37.77;;;35.57;;
21505;SDS011;10914;48.886;9.394;2023-07-09T03:29:58;36.83;;;34.78;;
21505;SDS011;10914;48.886;9.394;2023-07-09T03:32:23;38.00;;;36.00;;
21505;SDS011;10914;48.886;9.394;2023-07-09T03:34:48;40.40;;;37.88;;
21505;SDS011;10914;48.886;9.394;2023-07-09T03:37:13;36.93;;;34.77;;
21505;SDS011;10914;48.886;9.394;2023-07-09T03:39:40;35.92;;;33.80;;
21505;SDS011;10914;48.886;9.394;2023-07-09T03:42:05;40.63;;;38.33;;
21505;SDS011;10914;48.886;9.394;2023-07-09T03:44:30;48.22;;;45.63;;
21505;SDS011;10914;48.886;9.394;2023-07-09T03:46:55;40.35;;;38.20;;
21505;SDS011;10914;48.886;9.394;2023-07-09T03:49:20;29.00;;;27.23;;
21505;SDS011;10914;48.886;9.394;2023-07-09T03:51:46;29.73;;;27.73;;
21505;SDS011;10914;48.886;9.394;2023-07-09T03:54:11;29.77;;;27.77;;
21505;SDS011;10914;48.886;9.394;2023-07-09T03:56:36;30.30;;;28.58;;
21505;SDS011;10914;48.886;9.394;2023-07-09T03:59:02;39.40;;;37.17;;
21505;SDS011;10914;48.886;9.394;2023-07-09T04:01:27;32.40;;;30.20;;
21505;SDS011;10914;48.886;9.394;2023-07-09T04:03:52;34.20;;;32.28;;
21505;SDS011;10914;48.886;9.394;2023-07-09T04:06:17;37.83;;;35.83;;
21505;SDS011;10914;48.886;9.394;2023-07-09T04:08:42;38.90;;;36.47;;
21505;SDS011;10914;48.886;9.394;2023-07-09T04:11:08;33.17;;;31.07;;
21505;SDS011;10914;48.886;9.394;2023-07-09T04:13:34;37.40;;;35.25;;
21505;SDS011;10914;48.886;9.394;2023-07-09T04:15:59;37.40;;;35.17;;
21505;SDS011;10914;48.886;9.394;2023-07-09T04:18:24;37.22;;;35.22;;
21505;SDS011;10914;48.886;9.394;2023-07-09T04:20:50;32.65;;;30.75;;
21505;SDS011;10914;48.886;9.394;2023-07-09T04:23:16;34.58;;;32.45;;
21505;SDS011;10914;48.886;9.394;2023-07-09T04:25:41;31.80;;;30.05;;
21505;SDS011;10914;48.886;9.394;2023-07-09T04:28:06;33.63;;;31.73;;
21505;SDS011;10914;48.886;9.394;2023-07-09T04:30:32;33.97;;;31.85;;
21505;SDS011;10914;48.886;9.394;2023-07-09T04:32:57;33.77;;;31.67;;
21505;SDS011;10914;48.886;9.394;2023-07-09T04:35:22;44.85;;;42.45;;
21505;SDS011;10914;48.886;9.394;2023-07-09T04:37:48;33.33;;;31.42;;
21505;SDS011;10914;48.886;9.394;2023-07-09T04:40:14;32.70;;;30.80;;
21505;SDS011;10914;48.886;9.394;2023-07-09T04:42:40;33.22;;;31.33;;
21505;SDS011;10914;48.886;9.394;2023-07-09T04:45:06;29.80;;;28.00;;
21505;SDS011;10914;48.886;9.394;2023-07-09T04:47:31;32.90;;;30.80;;
21505;SDS011;10914;48.886;9.394;2023-07-09T04:49:56;32.38;;;30.48;;
21505;SDS011;10914;48.886;9.394;2023-07-09T04:52:21;29.83;;;27.93;;
21505;SDS011;10914;48.886;9.394;2023-07-09T04:54:47;33.08;;;31.20;;
21505;SDS011;10914;48.886;9.394;2023-07-09T04:57:16;35.60;;;33.55;;
21505;SDS011;10914;48.886;9.394;2023-07-09T04:59:41;49.88;;;47.28;;
21505;SDS011;10914;48.886;9.394;2023-07-09T05:02:06;48.78;;;46.17;;
21505;SDS011;10914;48.886;9.394;2023-07-09T05:04:32;60.00;;;56.73;;
21505;SDS011;10914;48.886;9.394;2023-07-09T05:06:57;82.35;;;78.18;;
21505;SDS011;10914;48.886;9.394;2023-07-09T05:09:23;74.88;;;71.28;;
21505;SDS011;10914;48.886;9.394;2023-07-09T05:11:48;36.08;;;33.97;;
21505;SDS011;10914;48.886;9.394;2023-07-09T05:14:14;45.13;;;42.63;;
21505;SDS011;10914;48.886;9.394;2023-07-09T05:16:39;46.80;;;44.17;;
21505;SDS011;10914;48.886;9.394;2023-07-09T05:19:06;39.20;;;37.03;;
21505;SDS011;10914;48.886;9.394;2023-07-09T05:21:31;31.15;;;29.48;;
21505;SDS011;10914;48.886;9.394;2023-07-09T05:23:57;31.55;;;29.23;;
21505;SDS011;10914;48.886;9.394;2023-07-09T05:26:22;27.17;;;25.58;;
21505;SDS011;10914;48.886;9.394;2023-07-09T05:28:47;24.50;;;22.90;;
21505;SDS011;10914;48.886;9.394;2023-07-09T05:31:12;26.77;;;25.17;;
21505;SDS011;10914;48.886;9.394;2023-07-09T05:33:38;24.13;;;22.63;;
21505;SDS011;10914;48.886;9.394;2023-07-09T05:36:03;24.15;;;22.50;;
21505;SDS011;10914;48.886;9.394;2023-07-09T05:38:28;21.55;;;20.25;;
21505;SDS011;10914;48.886;9.394;2023-07-09T05:41:00;21.60;;;20.20;;
21505;SDS011;10914;48.886;9.394;2023-07-09T05:43:26;21.83;;;20.42;;
21505;SDS011;10914;48.886;9.394;2023-07-09T05:45:51;30.93;;;29.20;;
21505;SDS011;10914;48.886;9.394;2023-07-09T05:48:16;23.97;;;22.37;;
21505;SDS011;10914;48.886;9.394;2023-07-09T05:50:41;32.13;;;30.27;;
21505;SDS011;10914;48.886;9.394;2023-07-09T05:53:07;33.10;;;31.30;;
21505;SDS011;10914;48.886;9.394;2023-07-09T05:55:32;37.03;;;35.00;;
21505;SDS011;10914;48.886;9.394;2023-07-09T05:57:57;42.47;;;40.20;;
21505;SDS011;10914;48.886;9.394;2023-07-09T06:00:22;28.80;;;26.92;;
21505;SDS011;10914;48.886;9.394;2023-07-09T06:02:47;28.37;;;26.63;;
21505;SDS011;10914;48.886;9.394;2023-07-09T06:05:13;30.63;;;28.70;;
21505;SDS011;10914;48.886;9.394;2023-07-09T06:07:38;26.42;;;24.92;;
21505;SDS011;10914;48.886;9.394;2023-07-09T06:10:07;21.85;;;20.45;;
21505;SDS011;10914;48.886;9.394;2023-07-09T06:12:33;26.50;;;24.83;;
21505;SDS011;10914;48.886;9.394;2023-07-09T06:14:58;30.52;;;28.75;;
21505;SDS011;10914;48.886;9.394;2023-07-09T06:17:23;28.08;;;26.23;;
21505;SDS011;10914;48.886;9.394;2023-07-09T06:19:48;23.07;;;21.67;;
21505;SDS011;10914;48.886;9.394;2023-07-09T06:22:14;25.63;;;23.93;;
21505;SDS011;10914;48.886;9.394;2023-07-09T06:24:39;26.23;;;24.47;;
21505;SDS011;10914;48.886;9.394;2023-07-09T06:27:04;22.50;;;21.10;;
21505;SDS011;10914;48.886;9.394;2023-07-09T06:29:29;24.00;;;22.52;;
21505;SDS011;10914;48.886;9.394;2023-07-09T06:31:54;24.30;;;22.90;;
21505;SDS011;10914;48.886;9.394;2023-07-09T06:34:20;21.97;;;20.47;;
21505;SDS011;10914;48.886;9.394;2023-07-09T06:36:45;22.30;;;20.87;;
21505;SDS011;10914;48.886;9.394;2023-07-09T06:39:10;22.43;;;20.90;;
21505;SDS011;10914;48.886;9.394;2023-07-09T06:41:36;21.55;;;20.15;;
21505;SDS011;10914;48.886;9.394;2023-07-09T06:44:05;23.80;;;22.35;;
21505;SDS011;10914;48.886;9.394;2023-07-09T06:46:31;22.08;;;20.65;;
21505;SDS011;10914;48.886;9.394;2023-07-09T06:48:56;23.23;;;21.63;;
21505;SDS011;10914;48.886;9.394;2023-07-09T06:51:21;21.73;;;20.42;;
21505;SDS011;10914;48.886;9.394;2023-07-09T06:53:46;22.17;;;20.60;;
21505;SDS011;10914;48.886;9.394;2023-07-09T06:56:15;23.10;;;21.52;;
21505;SDS011;10914;48.886;9.394;2023-07-09T06:58:40;21.70;;;20.20;;
21505;SDS011;10914;48.886;9.394;2023-07-09T07:01:05;21.57;;;20.13;;
21505;SDS011;10914;48.886;9.394;2023-07-09T07:03:31;22.43;;;20.97;;
21505;SDS011;10914;48.886;9.394;2023-07-09T07:05:57;21.95;;;20.63;;
21505;SDS011;10914;48.886;9.394;2023-07-09T07:08:23;22.07;;;20.50;;
21505;SDS011;10914;48.886;9.394;2023-07-09T07:10:48;22.90;;;21.50;;
21505;SDS011;10914;48.886;9.394;2023-07-09T07:13:14;23.48;;;21.85;;
21505;SDS011;10914;48.886;9.394;2023-07-09T07:15:39;23.07;;;21.23;;
21505;SDS011;10914;48.886;9.394;2023-07-09T07:18:05;21.35;;;20.10;;
21505;SDS011;10914;48.886;9.394;2023-07-09T07:20:31;22.40;;;20.90;;
21505;SDS011;10914;48.886;9.394;2023-07-09T07:22:56;22.85;;;21.25;;
21505;SDS011;10914;48.886;9.394;2023-07-09T07:25:22;21.55;;;20.15;;
21505;SDS011;10914;48.886;9.394;2023-07-09T07:27:48;21.65;;;20.02;;
21505;SDS011;10914;48.886;9.394;2023-07-09T07:30:13;21.07;;;19.63;;
21505;SDS011;10914;48.886;9.394;2023-07-09T07:32:39;21.02;;;19.63;;
21505;SDS011;10914;48.886;9.394;2023-07-09T07:35:07;21.23;;;19.83;;
21505;SDS011;10914;48.886;9.394;2023-07-09T07:37:34;20.67;;;19.48;;
21505;SDS011;10914;48.886;9.394;2023-07-09T07:40:00;21.70;;;20.23;;
21505;SDS011;10914;48.886;9.394;2023-07-09T07:42:25;21.02;;;19.70;;
21505;SDS011;10914;48.886;9.394;2023-07-09T07:44:51;22.33;;;20.88;;
21505;SDS011;10914;48.886;9.394;2023-07-09T07:47:17;21.00;;;19.70;;
21505;SDS011;10914;48.886;9.394;2023-07-09T07:49:42;22.05;;;20.50;;
21505;SDS011;10914;48.886;9.394;2023-07-09T07:52:07;21.90;;;19.93;;
21505;SDS011;10914;48.886;9.394;2023-07-09T07:54:33;21.88;;;20.30;;
21505;SDS011;10914;48.886;9.394;2023-07-09T07:56:58;21.77;;;20.17;;
21505;SDS011;10914;48.886;9.394;2023-07-09T07:59:24;21.20;;;19.88;;
21505;SDS011;10914;48.886;9.394;2023-07-09T08:01:49;20.60;;;19.30;;
21505;SDS011;10914;48.886;9.394;2023-07-09T08:04:14;23.88;;;22.30;;
21505;SDS011;10914;48.886;9.394;2023-07-09T08:06:40;20.17;;;18.55;;
21505;SDS011;10914;48.886;9.394;2023-07-09T08:09:05;22.33;;;20.90;;
21505;SDS011;10914;48.886;9.394;2023-07-09T08:11:30;22.97;;;21.47;;
21505;SDS011;10914;48.886;9.394;2023-07-09T08:13:57;20.98;;;19.67;;
21505;SDS011;10914;48.886;9.394;2023-07-09T08:16:22;22.65;;;21.05;;
21505;SDS011;10914;48.886;9.394;2023-07-09T08:18:47;23.40;;;21.80;;
21505;SDS011;10914;48.886;9.394;2023-07-09T08:21:13;21.00;;;19.70;;
21505;SDS011;10914;48.886;9.394;2023-07-09T08:23:38;21.07;;;19.50;;
21505;SDS011;10914;48.886;9.394;2023-07-09T08:26:04;22.15;;;20.42;;
21505;SDS011;10914;48.886;9.394;2023-07-09T08:28:29;22.37;;;20.70;;
21505;SDS011;10914;48.886;9.394;2023-07-09T08:30:55;21.48;;;20.17;;
21505;SDS011;10914;48.886;9.394;2023-07-09T08:33:21;21.50;;;20.00;;
21505;SDS011;10914;48.886;9.394;2023-07-09T08:35:50;21.73;;;20.23;;
21505;SDS011;10914;48.886;9.394;2023-07-09T08:38:15;22.48;;;20.98;;
21505;SDS011;10914;48.886;9.394;2023-07-09T08:40:41;20.30;;;19.02;;
21505;SDS011;10914;48.886;9.394;2023-07-09T08:43:20;22.20;;;20.80;;
21505;SDS011;10914;48.886;9.394;2023-07-09T08:48:35;20.35;;;18.92;;
21505;SDS011;10914;48.886;9.394;2023-07-09T08:51:08;20.63;;;19.23;;
21505;SDS011;10914;48.886;9.394;2023-07-09T08:53:42;20.77;;;19.48;;
21505;SDS011;10914;48.886;9.394;2023-07-09T08:56:09;19.85;;;18.55;;
21505;SDS011;10914;48.886;9.394;2023-07-09T08:58:35;19.77;;;18.48;;
21505;SDS011;10914;48.886;9.394;2023-07-09T09:01:02;19.75;;;18.35;;
21505;SDS011;10914;48.886;9.394;2023-07-09T09:05:57;20.30;;;19.10;;
21505;SDS011;10914;48.886;9.394;2023-07-09T09:08:28;20.70;;;19.40;;
21505;SDS011;10914;48.886;9.394;2023-07-09T09:11:07;19.85;;;18.65;;
21505;SDS011;10914;48.886;9.394;2023-07-09T09:13:35;20.00;;;18.70;;
21505;SDS011;10914;48.886;9.394;2023-07-09T09:16:02;18.35;;;17.15;;
21505;SDS011;10914;48.886;9.394;2023-07-09T09:18:31;18.30;;;17.13;;
21505;SDS011;10914;48.886;9.394;2023-07-09T09:21:03;18.77;;;17.40;;
21505;SDS011;10914;48.886;9.394;2023-07-09T09:23:37;18.08;;;16.98;;
21505;SDS011;10914;48.886;9.394;2023-07-09T09:26:03;17.83;;;16.73;;
21505;SDS011;10914;48.886;9.394;2023-07-09T09:28:35;17.33;;;16.23;;
21505;SDS011;10914;48.886;9.394;2023-07-09T09:31:00;18.20;;;16.90;;
21505;SDS011;10914;48.886;9.394;2023-07-09T09:33:26;17.73;;;16.52;;
21505;SDS011;10914;48.886;9.394;2023-07-09T09:36:02;19.02;;;17.65;;
21505;SDS011;10914;48.886;9.394;2023-07-09T09:38:28;18.95;;;17.65;;
21505;SDS011;10914;48.886;9.394;2023-07-09T09:40:59;17.63;;;16.43;;
21505;SDS011;10914;48.886;9.394;2023-07-09T09:43:24;17.33;;;16.20;;
21505;SDS011;10914;48.886;9.394;2023-07-09T09:45:51;17.25;;;16.13;;
21505;SDS011;10914;48.886;9.394;2023-07-09T09:50:41;17.63;;;16.43;;
21505;SDS011;10914;48.886;9.394;2023-07-09T09:53:07;17.92;;;16.63;;
21505;SDS011;10914;48.886;9.394;2023-07-09T09:55:33;17.50;;;16.20;;
21505;SDS011;10914;48.886;9.394;2023-07-09T09:57:59;17.88;;;16.67;;
21505;SDS011;10914;48.886;9.394;2023-07-09T10:00:25;17.20;;;16.10;;
21505;SDS011;10914;48.886;9.394;2023-07-09T10:02:56;17.98;;;16.75;;
21505;SDS011;10914;48.886;9.394;2023-07-09T10:05:29;17.00;;;15.90;;
21505;SDS011;10914;48.886;9.394;2023-07-09T10:07:59;16.60;;;15.50;;
21505;SDS011;10914;48.886;9.394;2023-07-09T10:10:26;17.13;;;16.02;;
21505;SDS011;10914;48.886;9.394;2023-07-09T10:12:55;17.52;;;16.27;;
21505;SDS011;10914;48.886;9.394;2023-07-09T10:18:29;16.48;;;15.35;;
21505;SDS011;10914;48.886;9.394;2023-07-09T10:21:07;16.73;;;15.65;;
21505;SDS011;10914;48.886;9.394;2023-07-09T10:23:47;16.05;;;15.05;;
21505;SDS011;10914;48.886;9.394;2023-07-09T10:26:14;17.13;;;15.75;;
21505;SDS011;10914;48.886;9.394;2023-07-09T10:31:23;17.13;;;15.80;;
21505;SDS011;10914;48.886;9.394;2023-07-09T10:38:52;16.13;;;15.02;;
21505;SDS011;10914;48.886;9.394;2023-07-09T10:41:18;16.10;;;14.90;;
21505;SDS011;10914;48.886;9.394;2023-07-09T10:43:46;17.00;;;15.80;;
21505;SDS011;10914;48.886;9.394;2023-07-09T10:46:14;17.02;;;15.93;;
21505;SDS011;10914;48.886;9.394;2023-07-09T10:48:44;17.08;;;15.88;;
21505;SDS011;10914;48.886;9.394;2023-07-09T10:51:13;16.20;;;15.30;;
21505;SDS011;10914;48.886;9.394;2023-07-09T10:53:45;16.52;;;15.50;;
21505;SDS011;10914;48.886;9.394;2023-07-09T10:56:13;16.38;;;15.45;;
21505;SDS011;10914;48.886;9.394;2023-07-09T11:01:31;17.58;;;16.38;;
21505;SDS011;10914;48.886;9.394;2023-07-09T11:03:59;17.15;;;16.05;;
21505;SDS011;10914;48.886;9.394;2023-07-09T11:06:34;16.55;;;15.43;;
21505;SDS011;10914;48.886;9.394;2023-07-09T11:09:00;16.52;;;15.50;;
21505;SDS011;10914;48.886;9.394;2023-07-09T11:11:34;17.60;;;16.40;;
21505;SDS011;10914;48.886;9.394;2023-07-09T11:14:01;16.92;;;15.90;;
21505;SDS011;10914;48.886;9.394;2023-07-09T11:16:30;17.10;;;15.93;;
21505;SDS011;10914;48.886;9.394;2023-07-09T11:19:00;16.75;;;15.55;;
21505;SDS011;10914;48.886;9.394;2023-07-09T11:21:26;16.13;;;15.13;;
21505;SDS011;10914;48.886;9.394;2023-07-09T11:23:52;17.63;;;16.42;;
21505;SDS011;10914;48.886;9.394;2023-07-09T11:28:52;17.13;;;15.82;;
21505;SDS011;10914;48.886;9.394;2023-07-09T11:31:51;17.75;;;16.33;;
21505;SDS011;10914;48.886;9.394;2023-07-09T11:37:12;17.00;;;15.90;;
21505;SDS011;10914;48.886;9.394;2023-07-09T11:39:39;16.90;;;15.80;;
21505;SDS011;10914;48.886;9.394;2023-07-09T11:44:51;17.33;;;16.02;;
21505;SDS011;10914;48.886;9.394;2023-07-09T11:47:20;15.85;;;14.82;;
21505;SDS011;10914;48.886;9.394;2023-07-09T11:52:11;15.38;;;14.25;;
21505;SDS011;10914;48.886;9.394;2023-07-09T11:54:38;16.92;;;15.52;;
21505;SDS011;10914;48.886;9.394;2023-07-09T11:57:05;15.73;;;14.68;;
21505;SDS011;10914;48.886;9.394;2023-07-09T11:59:39;16.10;;;14.90;;
21505;SDS011;10914;48.886;9.394;2023-07-09T12:02:04;16.02;;;14.80;;
21505;SDS011;10914;48.886;9.394;2023-07-09T12:04:31;16.67;;;15.57;;
21505;SDS011;10914;48.886;9.394;2023-07-09T12:06:57;16.73;;;15.68;;
21505;SDS011;10914;48.886;9.394;2023-07-09T12:09:24;18.13;;;16.88;;
21505;SDS011;10914;48.886;9.394;2023-07-09T12:11:55;17.65;;;16.48;;
21505;SDS011;10914;48.886;9.394;2023-07-09T12:14:21;17.40;;;16.20;;
21505;SDS011;10914;48.886;9.394;2023-07-09T12:16:47;17.42;;;16.27;;
21505;SDS011;10914;48.886;9.394;2023-07-09T12:19:14;18.30;;;17.02;;
21505;SDS011;10914;48.886;9.394;2023-07-09T12:21:42;18.80;;;17.45;;
21505;SDS011;10914;48.886;9.394;2023-07-09T12:24:19;18.23;;;17.02;;
21505;SDS011;10914;48.886;9.394;2023-07-09T12:26:49;18.42;;;17.20;;
21505;SDS011;10914;48.886;9.394;2023-07-09T12:29:14;18.17;;;16.98;;
21505;SDS011;10914;48.886;9.394;2023-07-09T12:31:40;17.93;;;16.73;;
21505;SDS011;10914;48.886;9.394;2023-07-09T12:34:05;17.90;;;16.80;;
21505;SDS011;10914;48.886;9.394;2023-07-09T12:36:30;18.77;;;17.50;;
21505;SDS011;10914;48.886;9.394;2023-07-09T12:38:56;18.43;;;17.00;;
21505;SDS011;10914;48.886;9.394;2023-07-09T12:41:25;18.15;;;16.95;;
21505;SDS011;10914;48.886;9.394;2023-07-09T12:43:52;18.52;;;17.13;;
21505;SDS011;10914;48.886;9.394;2023-07-09T12:46:17;18.23;;;16.83;;
21505;SDS011;10914;48.886;9.394;2023-07-09T12:48:43;18.33;;;17.13;;
21505;SDS011;10914;48.886;9.394;2023-07-09T12:51:13;17.40;;;16.38;;
21505;SDS011;10914;48.886;9.394;2023-07-09T12:53:39;18.25;;;16.77;;
21505;SDS011;10914;48.886;9.394;2023-07-09T12:56:07;18.00;;;16.70;;
21505;SDS011;10914;48.886;9.394;2023-07-09T12:58:36;42.30;;;38.95;;
21505;SDS011;10914;48.886;9.394;2023-07-09T13:01:05;26.25;;;24.02;;
21505;SDS011;10914;48.886;9.394;2023-07-09T13:03:32;32.65;;;29.30;;
21505;SDS011;10914;48.886;9.394;2023-07-09T13:08:23;19.47;;;18.03;;
21505;SDS011;10914;48.886;9.394;2023-07-09T13:10:49;18.13;;;16.92;;
21505;SDS011;10914;48.886;9.394;2023-07-09T13:13:17;17.88;;;16.67;;
21505;SDS011;10914;48.886;9.394;2023-07-09T13:15:43;17.48;;;16.30;;
21505;SDS011;10914;48.886;9.394;2023-07-09T13:18:11;18.92;;;17.40;;
21505;SDS011;10914;48.886;9.394;2023-07-09T13:20:38;17.83;;;16.40;;
21505;SDS011;10914;48.886;9.394;2023-07-09T13:23:08;17.95;;;16.63;;
21505;SDS011;10914;48.886;9.394;2023-07-09T13:25:34;19.15;;;17.70;;
21505;SDS011;10914;48.886;9.394;2023-07-09T13:27:59;18.73;;;17.23;;
21505;SDS011;10914;48.886;9.394;2023-07-09T13:30:24;18.63;;;17.07;;
21505;SDS011;10914;48.886;9.394;2023-07-09T13:32:49;18.48;;;17.08;;
21505;SDS011;10914;48.886;9.394;2023-07-09T13:35:15;18.63;;;17.33;;
21505;SDS011;10914;48.886;9.394;2023-07-09T13:37:42;19.42;;;17.92;;
21505;SDS011;10914;48.886;9.394;2023-07-09T13:40:07;18.48;;;17.17;;
21505;SDS011;10914;48.886;9.394;2023-07-09T13:42:34;17.52;;;16.13;;
21505;SDS011;10914;48.886;9.394;2023-07-09T13:45:00;17.97;;;16.67;;
21505;SDS011;10914;48.886;9.394;2023-07-09T13:47:25;18.17;;;16.63;;
21505;SDS011;10914;48.886;9.394;2023-07-09T13:49:50;18.48;;;16.92;;
21505;SDS011;10914;48.886;9.394;2023-07-09T13:52:17;16.83;;;15.52;;
21505;SDS011;10914;48.886;9.394;2023-07-09T13:54:43;17.98;;;16.58;;
21505;SDS011;10914;48.886;9.394;2023-07-09T13:57:13;17.50;;;16.30;;
21505;SDS011;10914;48.886;9.394;2023-07-09T13:59:38;17.20;;;15.73;;
21505;SDS011;10914;48.886;9.394;2023-07-09T14:02:07;16.77;;;15.67;;
21505;SDS011;10914;48.886;9.394;2023-07-09T14:04:41;17.80;;;16.55;;
21505;SDS011;10914;48.886;9.394;2023-07-09T14:07:08;17.90;;;16.57;;
21505;SDS011;10914;48.886;9.394;2023-07-09T14:09:34;16.48;;;15.20;;
21505;SDS011;10914;48.886;9.394;2023-07-09T14:11:59;17.40;;;16.20;;
21505;SDS011;10914;48.886;9.394;2023-07-09T14:14:27;17.17;;;16.07;;
21505;SDS011;10914;48.886;9.394;2023-07-09T14:16:52;17.15;;;15.85;;
21505;SDS011;10914;48.886;9.394;2023-07-09T14:19:19;17.90;;;16.70;;
21505;SDS011;10914;48.886;9.394;2023-07-09T14:21:45;18.77;;;17.20;;
21505;SDS011;10914;48.886;9.394;2023-07-09T14:26:39;28.65;;;26.90;;
21505;SDS011;10914;48.886;9.394;2023-07-09T14:29:04;18.45;;;17.05;;
21505;SDS011;10914;48.886;9.394;2023-07-09T14:31:31;18.67;;;17.25;;
21505;SDS011;10914;48.886;9.394;2023-07-09T14:33:59;19.40;;;17.90;;
21505;SDS011;10914;48.886;9.394;2023-07-09T14:36:36;18.13;;;16.77;;
21505;SDS011;10914;48.886;9.394;2023-07-09T14:39:01;17.17;;;15.93;;
21505;SDS011;10914;48.886;9.394;2023-07-09T14:41:26;17.33;;;16.23;;
21505;SDS011;10914;48.886;9.394;2023-07-09T14:43:53;17.63;;;16.53;;
21505;SDS011;10914;48.886;9.394;2023-07-09T14:46:19;17.75;;;16.50;;
21505;SDS011;10914;48.886;9.394;2023-07-09T14:48:44;16.17;;;15.27;;
21505;SDS011;10914;48.886;9.394;2023-07-09T14:51:13;18.30;;;16.67;;
21505;SDS011;10914;48.886;9.394;2023-07-09T14:53:39;16.83;;;15.73;;
21505;SDS011;10914;48.886;9.394;2023-07-09T14:56:04;17.60;;;16.30;;
21505;SDS011;10914;48.886;9.394;2023-07-09T14:58:30;19.08;;;17.73;;